createdAt,value
2018-08-20T00:00:21.492Z,97.10
2018-08-20T00:02:54.643Z,97.20
2018-08-20T00:05:25.994Z,97.20
2018-08-20T00:07:59.653Z,97.20
2018-08-20T00:10:29.977Z,97.40
2018-08-20T00:13:00.326Z,97.50
2018-08-20T00:15:30.790Z,97.60
2018-08-20T00:20:30.826Z,97.90
2018-08-20T00:23:01.613Z,98.00
2018-08-20T00:25:31.857Z,98.00
2018-08-20T00:28:03.574Z,98.20
2018-08-20T00:30:34.295Z,98.40
2018-08-20T00:33:04.637Z,98.50
2018-08-20T00:35:35.097Z,98.60
2018-08-20T00:38:05.605Z,98.60
2018-08-20T00:40:36.010Z,98.90
2018-08-20T00:43:06.489Z,98.70
2018-08-20T00:45:36.934Z,98.70
2018-08-20T00:50:36.850Z,98.70
2018-08-20T00:53:07.374Z,98.70
2018-08-20T00:55:37.793Z,98.90
2018-08-20T00:58:08.235Z,98.90
2018-08-20T01:05:38.465Z,99.10
2018-08-20T01:08:09.879Z,99.20
2018-08-20T01:10:40.378Z,99.30
2018-08-20T01:13:10.697Z,99.40
2018-08-20T01:18:14.786Z,99.60
2018-08-20T01:20:45.258Z,99.80
2018-08-20T01:23:15.641Z,99.80
2018-08-20T01:25:46.558Z,99.90
2018-08-20T01:28:17.162Z,99.90
2018-08-20T01:30:47.543Z,99.90
2018-08-20T01:33:18.342Z,99.90
2018-08-20T01:35:48.715Z,99.90
2018-08-20T01:38:19.242Z,99.90
2018-08-20T01:43:19.383Z,99.90
2018-08-20T01:45:49.930Z,99.90
2018-08-20T01:50:50.716Z,99.90
2018-08-20T01:53:21.049Z,99.90
2018-08-20T01:55:51.505Z,99.90
2018-08-20T01:58:22.288Z,99.90
2018-08-20T02:00:52.873Z,99.90
2018-08-20T02:03:23.340Z,99.90
2018-08-20T02:05:53.646Z,99.90
2018-08-20T02:10:53.876Z,99.90
2018-08-20T02:13:24.841Z,99.90
2018-08-20T02:15:55.273Z,99.90
2018-08-20T02:18:25.766Z,99.90
2018-08-20T02:20:56.179Z,99.90
2018-08-20T02:23:26.617Z,99.90
2018-08-20T02:25:57.057Z,99.90
2018-08-20T02:30:57.169Z,99.90
2018-08-20T02:33:27.685Z,99.90
2018-08-20T02:35:58.057Z,99.90
2018-08-20T02:38:28.761Z,99.90
2018-08-20T02:43:29.357Z,99.90
2018-08-20T02:45:59.854Z,99.90
2018-08-20T02:50:59.861Z,99.90
2018-08-20T02:53:30.297Z,99.90
2018-08-20T02:56:00.711Z,99.90
2018-08-20T02:58:31.126Z,99.90
2018-08-20T03:01:01.598Z,99.90
2018-08-20T03:03:32.576Z,99.90
2018-08-20T03:06:03.313Z,99.90
2018-08-20T03:08:33.708Z,99.90
2018-08-20T03:11:04.087Z,99.90
2018-08-20T03:16:04.058Z,99.90
2018-08-20T03:18:34.459Z,99.90
2018-08-20T03:21:04.906Z,99.90
2018-08-20T03:23:35.285Z,99.90
2018-08-20T03:26:05.766Z,99.90
2018-08-20T03:28:36.180Z,99.90
2018-08-20T03:31:06.835Z,99.90
2018-08-20T03:33:37.195Z,99.90
2018-08-20T03:36:07.770Z,99.90
2018-08-20T03:38:38.206Z,99.90
2018-08-20T03:41:08.859Z,99.90
2018-08-20T03:43:39.473Z,99.90
2018-08-20T03:46:10.125Z,99.90
2018-08-20T03:48:40.602Z,99.90
2018-08-20T03:53:40.737Z,99.90
2018-08-20T03:58:41.109Z,99.90
2018-08-20T04:01:11.412Z,99.90
2018-08-20T04:06:11.566Z,99.90
2018-08-20T04:08:41.796Z,99.90
2018-08-20T04:11:12.073Z,99.90
2018-08-20T04:13:42.509Z,99.90
2018-08-20T04:18:42.821Z,99.90
2018-08-20T04:21:13.326Z,99.90
2018-08-20T04:23:43.699Z,99.90
2018-08-20T04:26:14.110Z,99.90
2018-08-20T04:28:44.525Z,99.90
2018-08-20T04:31:14.925Z,99.90
2018-08-20T04:33:45.762Z,99.90
2018-08-20T04:36:16.263Z,99.90
2018-08-20T04:41:16.501Z,99.90
2018-08-20T04:43:47.005Z,99.90
2018-08-20T04:46:17.479Z,99.90
2018-08-20T04:48:48.045Z,99.90
2018-08-20T04:51:18.718Z,99.90
2018-08-20T04:53:49.098Z,99.90
2018-08-20T04:56:19.610Z,99.90
2018-08-20T04:58:50.074Z,99.90
2018-08-20T05:01:20.523Z,99.90
2018-08-20T05:03:51.078Z,99.90
2018-08-20T05:06:21.657Z,99.90
2018-08-20T05:11:21.823Z,99.90
2018-08-20T05:13:52.208Z,99.90
2018-08-20T05:16:22.750Z,99.90
2018-08-20T05:18:53.554Z,99.90
2018-08-20T05:21:24.177Z,99.90
2018-08-20T05:23:54.678Z,99.90
2018-08-20T05:26:25.101Z,99.90
2018-08-20T05:33:54.690Z,99.90
2018-08-20T05:36:25.162Z,99.90
2018-08-20T05:38:55.598Z,99.90
2018-08-20T05:41:25.985Z,99.90
2018-08-20T05:43:56.422Z,99.90
2018-08-20T05:46:26.942Z,99.90
2018-08-20T05:48:57.512Z,99.90
2018-08-20T05:51:27.835Z,99.90
2018-08-20T05:53:58.227Z,99.60
2018-08-20T05:56:28.678Z,99.50
2018-08-20T05:58:59.160Z,99.70
2018-08-20T06:01:30.129Z,99.00
2018-08-20T06:06:30.559Z,98.40
2018-08-20T06:09:00.991Z,98.30
2018-08-20T06:11:31.442Z,98.40
2018-08-20T06:14:01.743Z,98.40
2018-08-20T06:16:32.166Z,98.10
2018-08-20T06:19:02.670Z,97.20
2018-08-20T06:21:33.813Z,96.60
2018-08-20T06:24:04.241Z,95.80
2018-08-20T06:26:34.689Z,95.80
2018-08-20T06:29:05.326Z,95.10
2018-08-20T06:34:05.562Z,93.90
2018-08-20T06:39:07.020Z,93.00
2018-08-20T06:41:37.457Z,92.30
2018-08-20T06:44:08.117Z,92.80
2018-08-20T06:46:38.802Z,91.20
2018-08-20T06:49:10.095Z,91.50
2018-08-20T06:51:40.633Z,90.50
2018-08-20T06:54:11.122Z,90.80
2018-08-20T06:56:41.574Z,90.00
2018-08-20T07:01:41.817Z,88.70
2018-08-20T07:04:12.143Z,88.70
2018-08-20T07:06:42.535Z,86.50
2018-08-20T07:09:13.037Z,86.50
2018-08-20T07:11:43.502Z,85.70
2018-08-20T07:14:19.724Z,85.30
2018-08-20T07:16:50.278Z,84.30
2018-08-20T07:19:20.789Z,83.70
2018-08-20T07:21:52.110Z,83.90
2018-08-20T07:24:22.666Z,83.80
2018-08-20T07:26:53.141Z,82.60
2018-08-20T07:32:14.592Z,80.90
2018-08-20T07:34:46.123Z,80.70
2018-08-20T07:37:17.586Z,80.10
2018-08-20T07:39:48.835Z,78.20
2018-08-20T07:42:19.215Z,79.20
2018-08-20T07:44:50.001Z,76.40
2018-08-20T07:47:20.945Z,75.90
2018-08-20T07:49:51.269Z,75.00
2018-08-20T07:52:21.841Z,74.40
2018-08-20T07:54:52.357Z,75.20
2018-08-20T07:57:22.822Z,73.60
2018-08-20T08:02:22.838Z,71.80
2018-08-20T08:04:53.346Z,71.50
2018-08-20T08:07:23.797Z,68.80
2018-08-20T08:09:54.224Z,68.00
2018-08-20T08:12:24.776Z,67.30
2018-08-20T08:22:24.984Z,61.10
2018-08-20T08:24:56.391Z,57.60
2018-08-20T08:27:26.667Z,55.60
2018-08-20T08:29:56.965Z,55.70
2018-08-20T08:32:27.570Z,55.20
2018-08-20T08:34:57.855Z,55.50
2018-08-20T08:37:28.170Z,56.40
2018-08-20T08:39:58.658Z,54.20
2018-08-20T08:42:28.910Z,54.10
2018-08-20T08:44:59.375Z,51.20
2018-08-20T08:47:29.799Z,52.10
2018-08-20T08:50:00.211Z,50.70
2018-08-20T08:52:30.750Z,51.30
2018-08-20T08:55:01.259Z,50.70
2018-08-20T08:57:31.834Z,51.20
2018-08-20T09:00:02.327Z,51.30
2018-08-20T09:02:32.890Z,51.00
2018-08-20T09:05:03.290Z,51.60
2018-08-20T09:07:34.086Z,51.60
2018-08-20T09:10:04.534Z,51.90
2018-08-20T09:12:34.989Z,51.00
2018-08-20T09:15:06.167Z,49.00
2018-08-20T09:17:36.585Z,49.70
2018-08-20T09:20:08.793Z,49.90
2018-08-20T09:22:39.425Z,48.60
2018-08-20T09:25:11.038Z,49.80
2018-08-20T09:27:42.227Z,48.80
2018-08-20T09:30:16.734Z,50.50
2018-08-20T09:32:48.178Z,49.60
2018-08-20T09:35:20.195Z,50.00
2018-08-20T09:40:20.219Z,50.70
2018-08-20T09:42:52.115Z,50.80
2018-08-20T09:47:58.450Z,52.00
2018-08-20T09:50:28.828Z,52.30
2018-08-20T09:52:59.234Z,51.00
2018-08-20T09:55:29.713Z,50.80
2018-08-20T09:57:59.993Z,51.60
2018-08-20T10:00:35.358Z,51.30
2018-08-20T10:03:05.977Z,51.80
2018-08-20T10:05:36.358Z,51.90
2018-08-20T10:10:36.730Z,51.10
2018-08-20T10:13:07.121Z,51.60
2018-08-20T10:15:37.558Z,51.80
2018-08-20T10:18:08.598Z,51.20
2018-08-20T10:20:39.097Z,50.60
2018-08-20T10:23:09.685Z,50.10
2018-08-20T10:25:39.922Z,51.10
2018-08-20T10:28:10.323Z,51.80
2018-08-20T10:30:40.673Z,50.70
2018-08-20T10:33:11.818Z,50.50
2018-08-20T10:35:42.146Z,50.50
2018-08-20T10:38:12.475Z,50.30
2018-08-20T10:40:42.887Z,50.70
2018-08-20T10:43:13.265Z,50.30
2018-08-20T10:45:48.838Z,50.80
2018-08-20T10:48:19.161Z,49.50
2018-08-20T10:53:19.632Z,49.90
2018-08-20T10:55:50.498Z,49.90
2018-08-20T10:58:21.041Z,49.00
2018-08-20T11:00:51.578Z,49.30
2018-08-20T11:03:22.067Z,49.40
2018-08-20T11:05:52.537Z,49.80
2018-08-20T11:08:22.970Z,48.80
2018-08-20T11:13:23.126Z,47.90
2018-08-20T11:15:53.446Z,47.80
2018-08-20T11:18:23.934Z,47.60
2018-08-20T11:20:54.378Z,48.50
2018-08-20T11:23:24.689Z,47.10
2018-08-20T11:25:55.027Z,48.80
2018-08-20T11:28:25.734Z,48.00
2018-08-20T11:30:56.175Z,47.90
2018-08-20T11:33:26.505Z,46.60
2018-08-20T11:35:56.817Z,47.20
2018-08-20T11:38:27.149Z,45.60
2018-08-20T11:40:57.434Z,44.80
2018-08-20T11:43:27.694Z,44.70
2018-08-20T11:45:58.257Z,44.20
2018-08-20T11:48:28.546Z,44.30
2018-08-20T11:50:59.067Z,43.90
2018-08-20T11:53:29.530Z,44.80
2018-08-20T11:55:59.905Z,43.60
2018-08-20T11:58:30.463Z,43.40
2018-08-20T12:01:00.853Z,42.20
2018-08-20T12:03:31.157Z,43.30
2018-08-20T12:06:01.802Z,42.20
2018-08-20T12:08:32.132Z,42.10
2018-08-20T12:11:02.943Z,41.60
2018-08-20T12:13:33.326Z,42.20
2018-08-20T12:16:03.786Z,41.20
2018-08-20T12:18:34.210Z,42.20
2018-08-20T12:21:04.927Z,41.40
2018-08-20T12:28:34.545Z,42.60
2018-08-20T12:31:04.929Z,41.30
2018-08-20T12:33:35.458Z,40.70
2018-08-20T12:36:05.883Z,39.90
2018-08-20T12:38:36.563Z,39.00
2018-08-20T12:41:07.037Z,39.30
2018-08-20T12:43:37.443Z,39.60
2018-08-20T12:46:07.851Z,39.20
2018-08-20T12:48:38.606Z,39.80
2018-08-20T12:51:08.906Z,38.90
2018-08-20T12:53:39.349Z,39.00
2018-08-20T12:58:43.283Z,41.20
2018-08-20T13:01:13.509Z,41.60
2018-08-20T13:03:43.879Z,40.50
2018-08-20T13:06:14.202Z,40.00
2018-08-20T13:08:45.084Z,39.10
2018-08-20T13:11:15.646Z,39.30
2018-08-20T13:13:46.538Z,38.90
2018-08-20T13:18:46.686Z,39.40
2018-08-20T13:21:17.075Z,39.90
2018-08-20T13:23:47.474Z,39.60
2018-08-20T13:26:17.690Z,42.10
2018-08-20T13:28:48.057Z,40.20
2018-08-20T13:31:18.473Z,40.10
2018-08-20T13:33:48.855Z,38.80
2018-08-20T13:36:19.087Z,39.50
2018-08-20T13:38:49.661Z,40.20
2018-08-20T13:41:20.041Z,38.90
2018-08-20T13:43:50.436Z,38.90
2018-08-20T13:48:50.606Z,38.50
2018-08-20T13:51:20.884Z,38.40
2018-08-20T13:56:21.019Z,40.10
2018-08-20T14:01:21.354Z,38.70
2018-08-20T14:03:52.099Z,37.80
2018-08-20T14:08:52.361Z,39.70
2018-08-20T14:11:22.701Z,39.70
2018-08-20T14:13:53.105Z,40.60
2018-08-20T14:16:23.441Z,39.80
2018-08-20T14:18:54.003Z,38.50
2018-08-20T14:21:24.402Z,38.90
2018-08-20T14:23:54.731Z,39.10
2018-08-20T14:26:25.027Z,38.90
2018-08-20T14:28:55.317Z,38.70
2018-08-20T14:31:25.730Z,40.90
2018-08-20T14:33:56.069Z,37.80
2018-08-20T14:36:26.258Z,38.10
2018-08-20T14:38:56.851Z,37.70
2018-08-20T14:41:27.233Z,37.60
2018-08-20T14:43:57.733Z,38.50
2018-08-20T14:46:28.170Z,38.90
2018-08-20T14:48:58.470Z,38.80
2018-08-20T14:51:28.801Z,38.70
2018-08-20T14:53:59.170Z,39.20
2018-08-20T14:56:29.648Z,38.80
2018-08-20T14:58:59.950Z,38.70
2018-08-20T15:01:30.457Z,38.00
2018-08-20T15:04:00.870Z,38.20
2018-08-20T15:06:31.353Z,39.00
2018-08-20T15:09:01.805Z,39.60
2018-08-20T15:11:32.347Z,40.60
2018-08-20T15:14:03.143Z,41.80
2018-08-20T15:16:33.435Z,41.90
2018-08-20T15:21:33.405Z,41.00
2018-08-20T15:24:03.705Z,41.30
2018-08-20T15:26:33.946Z,40.80
2018-08-20T15:29:04.354Z,41.20
2018-08-20T15:31:34.891Z,41.10
2018-08-20T15:34:05.290Z,41.30
2018-08-20T15:39:06.081Z,41.00
2018-08-20T15:41:36.718Z,40.40
2018-08-20T15:44:08.318Z,41.70
2018-08-20T15:46:38.694Z,42.20
2018-08-20T15:49:09.100Z,42.50
2018-08-20T15:51:39.342Z,44.00
2018-08-20T15:54:09.716Z,44.00
2018-08-20T15:56:40.150Z,44.30
2018-08-20T15:59:10.469Z,44.30
2018-08-20T16:01:40.894Z,43.70
2018-08-20T16:04:11.449Z,43.70
2018-08-20T16:06:41.963Z,44.30
2018-08-20T16:11:41.938Z,44.70
2018-08-20T16:14:12.233Z,44.70
2018-08-20T16:16:42.478Z,45.40
2018-08-20T16:19:12.747Z,46.10
2018-08-20T16:21:43.110Z,46.30
2018-08-20T16:24:13.546Z,47.00
2018-08-20T16:26:43.840Z,46.80
2018-08-20T16:29:14.274Z,46.90
2018-08-20T16:34:14.385Z,47.30
2018-08-20T16:36:44.593Z,47.10
2018-08-20T16:39:14.990Z,47.70
2018-08-20T16:41:45.362Z,48.10
2018-08-20T16:44:15.913Z,48.70
2018-08-20T16:46:46.266Z,48.70
2018-08-20T16:49:16.582Z,49.60
2018-08-20T16:51:46.909Z,49.90
2018-08-20T16:54:17.209Z,49.60
2018-08-20T16:56:47.483Z,49.70
2018-08-20T16:59:17.950Z,49.70
2018-08-20T17:04:30.607Z,51.10
2018-08-20T17:07:02.275Z,52.00
2018-08-20T17:09:32.741Z,52.90
2018-08-20T17:12:03.306Z,53.70
2018-08-20T17:14:33.626Z,54.10
2018-08-20T17:17:04.070Z,54.70
2018-08-20T17:19:34.659Z,55.30
2018-08-20T17:22:05.167Z,55.80
2018-08-20T17:24:40.676Z,56.70
2018-08-20T17:27:11.725Z,57.50
2018-08-20T17:29:42.023Z,58.10
2018-08-20T17:32:12.374Z,58.70
2018-08-20T17:34:43.359Z,59.30
2018-08-20T17:37:13.930Z,59.90
2018-08-20T17:39:56.851Z,60.90
2018-08-20T17:42:29.109Z,62.20
2018-08-20T17:45:00.078Z,63.40
2018-08-20T17:47:30.962Z,64.60
2018-08-20T17:50:01.813Z,65.90
2018-08-20T17:52:35.639Z,67.30
2018-08-20T17:55:06.468Z,68.70
2018-08-20T18:00:43.108Z,70.60
2018-08-20T18:03:20.303Z,71.50
2018-08-20T18:05:57.848Z,72.20
2018-08-20T18:08:29.311Z,73.00
2018-08-20T18:10:59.760Z,73.60
2018-08-20T18:13:40.285Z,73.70
2018-08-20T18:16:12.246Z,74.10
2018-08-20T18:18:43.993Z,74.60
2018-08-20T18:21:14.385Z,75.00
2018-08-20T18:23:44.762Z,75.50
2018-08-20T18:26:15.129Z,75.70
2018-08-20T18:28:54.111Z,76.10
2018-08-20T18:31:27.949Z,76.40
2018-08-20T18:33:58.478Z,77.00
2018-08-20T18:36:31.667Z,77.20
2018-08-20T18:39:07.405Z,77.60
2018-08-20T18:41:53.235Z,77.90
2018-08-20T18:44:24.245Z,78.40
2018-08-20T18:46:54.783Z,79.20
2018-08-20T18:49:25.362Z,79.40
2018-08-20T18:52:03.921Z,79.80
2018-08-20T18:54:39.662Z,80.40
2018-08-20T18:57:10.258Z,80.90
2018-08-20T18:59:40.954Z,81.50
2018-08-20T19:02:16.147Z,81.70
2018-08-20T19:04:48.773Z,82.40
2018-08-20T19:07:19.350Z,82.90
2018-08-20T19:09:51.483Z,83.60
2018-08-20T19:12:21.898Z,83.90
2018-08-20T19:14:52.813Z,84.30
2018-08-20T19:17:28.177Z,84.80
2018-08-20T19:20:03.500Z,85.50
2018-08-20T19:22:34.239Z,86.00
2018-08-20T19:25:04.919Z,86.50
2018-08-20T19:27:35.370Z,87.10
2018-08-20T19:30:15.078Z,87.40
2018-08-20T19:32:45.869Z,88.00
2018-08-20T19:35:16.362Z,87.50
2018-08-20T19:37:46.770Z,87.90
2018-08-20T19:40:17.203Z,88.10
2018-08-20T19:42:47.763Z,88.50
2018-08-20T19:45:18.069Z,88.90
2018-08-20T19:47:48.448Z,89.20
2018-08-20T19:50:19.290Z,89.70
2018-08-20T19:52:49.648Z,89.80
2018-08-20T19:55:20.268Z,90.10
2018-08-20T19:57:50.689Z,90.40
2018-08-20T20:00:21.102Z,90.50
2018-08-20T20:02:51.625Z,90.60
2018-08-20T20:05:22.057Z,90.70
2018-08-20T20:08:03.105Z,90.90
2018-08-20T20:10:33.594Z,91.20
2018-08-20T20:13:04.024Z,91.30
2018-08-20T20:15:34.651Z,91.30
2018-08-20T20:18:05.438Z,91.40
2018-08-20T20:20:35.849Z,91.30
2018-08-20T20:23:06.414Z,91.10
2018-08-20T20:28:06.867Z,91.00
2018-08-20T20:30:37.222Z,90.90
2018-08-20T20:33:07.721Z,91.00
2018-08-20T20:35:37.970Z,90.90
2018-08-20T20:38:09.182Z,91.00
2018-08-20T20:40:39.817Z,91.10
2018-08-20T20:45:40.797Z,91.10
2018-08-20T20:48:11.369Z,91.10
2018-08-20T20:50:41.813Z,91.10
2018-08-20T20:53:13.050Z,91.10
2018-08-20T20:55:43.613Z,91.00
2018-08-20T20:58:23.681Z,91.20
2018-08-20T21:00:54.210Z,91.30
2018-08-20T21:03:26.428Z,91.30
2018-08-20T21:05:57.514Z,91.50
2018-08-20T21:08:34.056Z,91.50
2018-08-20T21:19:08.560Z,91.60
2018-08-20T21:21:39.059Z,91.60
2018-08-20T21:26:39.379Z,91.60
2018-08-20T21:29:09.918Z,91.60
2018-08-20T21:31:45.271Z,91.50
2018-08-20T21:34:15.819Z,91.80
2018-08-20T21:36:46.095Z,91.60
2018-08-20T21:39:16.673Z,91.70
2018-08-20T21:41:47.147Z,91.90
2018-08-20T21:44:17.727Z,92.10
2018-08-20T21:46:48.107Z,92.30
2018-08-20T21:49:18.683Z,92.30
2018-08-20T21:54:28.863Z,92.80
2018-08-20T21:57:00.255Z,92.90
2018-08-20T21:59:30.848Z,92.90
2018-08-20T22:02:01.282Z,93.00
2018-08-20T22:04:32.003Z,93.10
2018-08-20T22:07:02.538Z,93.20
2018-08-20T22:09:33.119Z,93.30
2018-08-20T22:12:03.568Z,93.30
2018-08-20T22:14:33.987Z,93.60
2018-08-20T22:22:04.265Z,94.10
2018-08-20T22:24:34.759Z,94.40
2018-08-20T22:27:05.374Z,94.60
2018-08-20T22:29:40.686Z,95.10
2018-08-20T22:32:11.035Z,95.60
2018-08-20T22:34:41.526Z,96.10
2018-08-20T22:37:11.939Z,96.50
2018-08-20T22:39:43.911Z,96.80
2018-08-20T22:42:14.514Z,97.00
2018-08-20T22:49:44.275Z,98.10
2018-08-20T22:52:19.376Z,98.40
2018-08-20T22:54:50.150Z,98.60
2018-08-20T22:57:20.647Z,98.90
2018-08-20T22:59:51.127Z,98.90
2018-08-20T23:02:21.396Z,98.90
2018-08-20T23:04:56.663Z,98.80
2018-08-20T23:07:27.780Z,98.80
2018-08-20T23:09:58.227Z,98.80
2018-08-20T23:15:03.808Z,98.70
2018-08-20T23:17:34.300Z,98.40
2018-08-20T23:22:34.472Z,97.90
2018-08-20T23:25:04.850Z,97.70
2018-08-20T23:27:39.678Z,97.60
2018-08-20T23:30:11.634Z,97.50
2018-08-20T23:32:42.180Z,97.30
2018-08-20T23:35:12.764Z,97.30
2018-08-20T23:37:43.522Z,97.20
2018-08-20T23:40:14.028Z,97.00
2018-08-20T23:42:44.480Z,96.80
2018-08-20T23:45:14.983Z,96.70
2018-08-20T23:47:45.432Z,96.80
2018-08-20T23:50:15.878Z,96.70
2018-08-20T23:52:46.390Z,96.60
2018-08-20T23:55:16.840Z,96.70
2018-08-20T23:57:47.479Z,96.80
